createdAt,value
2018-02-25T00:00:24.224Z,67.60
2018-02-25T00:02:51.811Z,67.20
2018-02-25T00:05:19.406Z,66.90
2018-02-25T00:07:47.005Z,66.70
2018-02-25T00:10:14.588Z,66.50
2018-02-25T00:12:42.191Z,66.40
2018-02-25T00:15:09.836Z,66.60
2018-02-25T00:17:37.428Z,66.60
2018-02-25T00:20:05.014Z,66.80
2018-02-25T00:22:32.982Z,66.90
2018-02-25T00:25:00.611Z,67.10
2018-02-25T00:27:28.193Z,67.30
2018-02-25T00:29:55.764Z,67.40
2018-02-25T00:32:23.383Z,67.40
2018-02-25T00:34:50.989Z,67.60
2018-02-25T00:37:18.719Z,67.40
2018-02-25T00:39:46.318Z,67.60
2018-02-25T00:42:13.919Z,67.70
2018-02-25T00:44:42.271Z,67.80
2018-02-25T00:47:10.704Z,67.80
2018-02-25T00:49:38.762Z,67.90
2018-02-25T00:52:07.446Z,67.80
2018-02-25T00:54:35.515Z,68.10
2018-02-25T00:57:03.126Z,68.10
2018-02-25T00:59:30.756Z,68.00
2018-02-25T01:01:58.378Z,68.00
2018-02-25T01:04:26.007Z,67.90
2018-02-25T01:06:53.626Z,68.00
2018-02-25T01:09:21.222Z,67.90
2018-02-25T01:11:48.806Z,67.90
2018-02-25T01:14:16.409Z,67.90
2018-02-25T01:16:44.010Z,67.90
2018-02-25T01:19:11.606Z,68.20
2018-02-25T01:21:39.178Z,68.00
2018-02-25T01:24:06.768Z,68.10
2018-02-25T01:26:34.343Z,68.10
2018-02-25T01:29:01.949Z,68.00
2018-02-25T01:31:29.515Z,68.30
2018-02-25T01:33:57.122Z,68.40
2018-02-25T01:36:24.720Z,68.50
2018-02-25T01:38:52.314Z,68.40
2018-02-25T01:41:19.904Z,68.30
2018-02-25T01:43:47.500Z,68.20
2018-02-25T01:46:15.108Z,68.30
2018-02-25T01:48:43.130Z,68.70
2018-02-25T01:51:10.726Z,68.70
2018-02-25T01:53:38.335Z,68.60
2018-02-25T01:56:05.915Z,68.60
2018-02-25T01:58:33.514Z,69.10
2018-02-25T02:01:01.454Z,69.20
2018-02-25T02:03:29.061Z,69.20
2018-02-25T02:05:56.653Z,69.30
2018-02-25T02:08:24.612Z,69.10
2018-02-25T02:10:52.224Z,69.10
2018-02-25T02:13:19.932Z,68.90
2018-02-25T02:15:47.513Z,68.90
2018-02-25T02:18:15.087Z,69.20
2018-02-25T02:20:43.007Z,69.20
2018-02-25T02:23:10.591Z,69.40
2018-02-25T02:25:38.215Z,69.30
2018-02-25T02:28:05.793Z,69.40
2018-02-25T02:30:33.391Z,69.50
2018-02-25T02:33:00.977Z,69.50
2018-02-25T02:35:28.563Z,69.60
2018-02-25T02:37:56.129Z,69.70
2018-02-25T02:40:23.769Z,69.90
2018-02-25T02:42:51.359Z,70.00
2018-02-25T02:45:18.970Z,70.10
2018-02-25T02:47:46.563Z,70.10
2018-02-25T02:50:14.150Z,70.10
2018-02-25T02:52:41.750Z,70.10
2018-02-25T02:55:09.322Z,70.00
2018-02-25T02:57:36.923Z,70.10
2018-02-25T03:00:04.502Z,70.50
2018-02-25T03:02:32.126Z,70.50
2018-02-25T03:04:59.707Z,70.50
2018-02-25T03:07:27.282Z,70.60
2018-02-25T03:09:54.906Z,70.60
2018-02-25T03:12:22.497Z,70.70
2018-02-25T03:14:50.342Z,70.60
2018-02-25T03:17:17.976Z,70.60
2018-02-25T03:19:45.552Z,70.60
2018-02-25T03:22:13.138Z,70.70
2018-02-25T03:24:40.761Z,70.70
2018-02-25T03:27:08.339Z,70.80
2018-02-25T03:29:35.941Z,70.80
2018-02-25T03:32:03.498Z,70.90
2018-02-25T03:34:31.103Z,71.10
2018-02-25T03:36:58.668Z,71.30
2018-02-25T03:39:26.286Z,71.10
2018-02-25T03:41:53.883Z,71.10
2018-02-25T03:44:21.486Z,71.20
2018-02-25T03:46:49.085Z,71.20
2018-02-25T03:49:16.691Z,71.20
2018-02-25T03:51:44.276Z,71.00
2018-02-25T03:54:12.090Z,71.00
2018-02-25T03:56:39.828Z,71.10
2018-02-25T03:59:07.430Z,71.20
2018-02-25T04:01:35.051Z,71.40
2018-02-25T04:04:02.672Z,71.40
2018-02-25T04:06:30.293Z,71.40
2018-02-25T04:08:57.878Z,71.40
2018-02-25T04:11:25.518Z,71.50
2018-02-25T04:13:53.075Z,71.60
2018-02-25T04:16:20.696Z,71.90
2018-02-25T04:18:48.290Z,71.70
2018-02-25T04:21:15.904Z,71.90
2018-02-25T04:23:43.472Z,72.20
2018-02-25T04:26:11.092Z,72.10
2018-02-25T04:28:39.022Z,72.20
2018-02-25T04:31:06.643Z,72.20
2018-02-25T04:33:34.259Z,72.30
2018-02-25T04:36:01.852Z,72.70
2018-02-25T04:38:29.483Z,72.50
2018-02-25T04:40:57.087Z,72.60
2018-02-25T04:43:24.642Z,72.80
2018-02-25T04:45:52.263Z,72.70
2018-02-25T04:48:19.856Z,72.70
2018-02-25T04:50:47.538Z,72.90
2018-02-25T04:53:15.127Z,73.00
2018-02-25T04:55:42.708Z,72.90
2018-02-25T04:58:10.729Z,72.90
2018-02-25T05:00:38.304Z,72.90
2018-02-25T05:03:05.881Z,73.00
2018-02-25T05:05:33.545Z,73.00
2018-02-25T05:08:01.116Z,73.40
2018-02-25T05:10:28.722Z,73.20
2018-02-25T05:12:56.287Z,73.40
2018-02-25T05:15:23.919Z,73.50
2018-02-25T05:17:51.517Z,73.40
2018-02-25T05:20:19.115Z,73.20
2018-02-25T05:22:46.732Z,73.40
2018-02-25T05:25:14.372Z,73.50
2018-02-25T05:27:41.939Z,73.70
2018-02-25T05:30:09.571Z,73.60
2018-02-25T05:32:37.189Z,73.70
2018-02-25T05:35:04.786Z,73.60
2018-02-25T05:37:32.388Z,73.60
2018-02-25T05:39:59.949Z,73.60
2018-02-25T05:42:27.545Z,73.50
2018-02-25T05:44:55.107Z,73.50
2018-02-25T05:47:22.724Z,73.70
2018-02-25T05:49:50.540Z,73.50
2018-02-25T05:52:18.188Z,73.60
2018-02-25T05:54:46.214Z,73.40
2018-02-25T05:57:13.834Z,73.40
2018-02-25T05:59:41.621Z,73.50
2018-02-25T06:02:09.275Z,73.50
2018-02-25T06:04:36.858Z,73.60
2018-02-25T06:07:04.825Z,73.50
2018-02-25T06:09:32.775Z,73.50
2018-02-25T06:12:00.374Z,73.60
2018-02-25T06:14:27.954Z,73.50
2018-02-25T06:16:55.593Z,73.40
2018-02-25T06:19:23.595Z,73.40
2018-02-25T06:21:51.191Z,73.40
2018-02-25T06:24:18.739Z,73.40
2018-02-25T06:26:46.381Z,73.50
2018-02-25T06:29:13.953Z,73.80
2018-02-25T06:31:41.622Z,73.90
2018-02-25T06:34:09.218Z,73.90
2018-02-25T06:36:36.832Z,73.90
2018-02-25T06:39:04.456Z,73.90
2018-02-25T06:41:32.447Z,73.70
2018-02-25T06:44:00.032Z,73.70
2018-02-25T06:46:27.607Z,73.60
2018-02-25T06:48:55.200Z,73.50
2018-02-25T06:51:23.002Z,73.40
2018-02-25T06:53:50.583Z,73.20
2018-02-25T06:56:18.182Z,72.80
2018-02-25T06:58:45.753Z,72.80
2018-02-25T07:01:16.307Z,72.60
2018-02-25T07:03:43.891Z,72.30
2018-02-25T07:06:11.504Z,72.50
2018-02-25T07:08:39.074Z,72.40
2018-02-25T07:11:06.669Z,72.00
2018-02-25T07:13:34.242Z,71.60
2018-02-25T07:16:01.833Z,71.40
2018-02-25T07:18:29.467Z,71.00
2018-02-25T07:20:57.071Z,70.80
2018-02-25T07:23:24.839Z,70.70
2018-02-25T07:25:52.423Z,70.60
2018-02-25T07:28:20.074Z,70.20
2018-02-25T07:30:47.648Z,70.00
2018-02-25T07:33:15.292Z,70.10
2018-02-25T07:35:42.937Z,69.60
2018-02-25T07:38:10.592Z,69.50
2018-02-25T07:40:38.299Z,68.50
2018-02-25T07:43:05.890Z,68.50
2018-02-25T07:45:35.551Z,67.80
2018-02-25T07:48:03.474Z,67.80
2018-02-25T07:50:31.034Z,67.30
2018-02-25T07:52:58.640Z,67.60
2018-02-25T07:55:26.250Z,67.60
2018-02-25T07:57:53.846Z,66.60
2018-02-25T08:00:21.442Z,66.30
2018-02-25T08:02:49.644Z,66.20
2018-02-25T08:05:17.224Z,65.70
2018-02-25T08:07:44.816Z,65.40
2018-02-25T08:10:12.421Z,65.70
2018-02-25T08:12:40.054Z,65.60
2018-02-25T08:15:08.018Z,65.70
2018-02-25T08:17:35.618Z,65.70
2018-02-25T08:20:03.179Z,65.60
2018-02-25T08:22:31.130Z,65.20
2018-02-25T08:24:59.724Z,64.90
2018-02-25T08:27:27.314Z,64.60
2018-02-25T08:29:54.936Z,64.80
2018-02-25T08:32:22.815Z,64.50
2018-02-25T08:34:50.619Z,64.40
2018-02-25T08:37:18.198Z,64.40
2018-02-25T08:39:45.781Z,64.10
2018-02-25T08:42:13.449Z,63.90
2018-02-25T08:44:41.040Z,63.70
2018-02-25T08:47:08.658Z,63.60
2018-02-25T08:49:36.239Z,63.40
2018-02-25T08:52:03.845Z,63.50
2018-02-25T08:54:32.015Z,63.60
2018-02-25T08:57:01.346Z,62.60
2018-02-25T08:59:29.309Z,62.60
2018-02-25T09:01:56.911Z,63.40
2018-02-25T09:04:25.267Z,62.70
2018-02-25T09:06:52.873Z,62.10
2018-02-25T09:09:20.477Z,61.70
2018-02-25T09:11:48.042Z,61.90
2018-02-25T09:14:15.652Z,62.20
2018-02-25T09:16:43.246Z,61.70
2018-02-25T09:19:10.878Z,61.40
2018-02-25T09:21:38.850Z,60.90
2018-02-25T09:24:06.450Z,60.90
2018-02-25T09:26:34.003Z,60.90
2018-02-25T09:29:01.768Z,61.10
2018-02-25T09:31:30.759Z,60.70
2018-02-25T09:33:58.830Z,60.70
2018-02-25T09:36:28.540Z,60.70
2018-02-25T09:38:56.147Z,60.90
2018-02-25T09:41:23.751Z,59.70
2018-02-25T09:43:52.544Z,59.20
2018-02-25T09:46:20.156Z,59.30
2018-02-25T09:48:47.801Z,58.80
2018-02-25T09:51:15.405Z,58.70
2018-02-25T09:53:42.994Z,58.40
2018-02-25T09:56:10.557Z,57.50
2018-02-25T09:58:38.506Z,57.70
2018-02-25T10:01:06.106Z,58.10
2018-02-25T10:03:33.751Z,58.40
2018-02-25T10:06:01.327Z,58.60
2018-02-25T10:08:28.925Z,57.20
2018-02-25T10:10:56.518Z,57.20
2018-02-25T10:13:24.126Z,57.60
2018-02-25T10:15:51.720Z,58.20
2018-02-25T10:18:19.310Z,57.20
2018-02-25T10:20:47.319Z,58.00
2018-02-25T10:23:14.932Z,58.00
2018-02-25T10:25:42.493Z,56.40
2018-02-25T10:28:10.095Z,56.40
2018-02-25T10:30:37.732Z,56.20
2018-02-25T10:33:05.346Z,56.40
2018-02-25T10:35:32.964Z,56.20
2018-02-25T10:38:00.534Z,55.30
2018-02-25T10:40:28.145Z,55.00
2018-02-25T10:42:55.778Z,54.80
2018-02-25T10:45:23.379Z,55.20
2018-02-25T10:47:50.998Z,55.50
2018-02-25T10:50:18.581Z,55.10
2018-02-25T10:52:46.154Z,55.10
2018-02-25T10:55:14.181Z,53.40
2018-02-25T10:57:41.777Z,53.40
2018-02-25T11:00:09.519Z,53.90
2018-02-25T11:02:37.676Z,54.00
2018-02-25T11:05:05.337Z,55.30
2018-02-25T11:07:32.998Z,55.40
2018-02-25T11:10:01.454Z,54.60
2018-02-25T11:12:29.599Z,54.60
2018-02-25T11:14:57.254Z,55.20
2018-02-25T11:17:25.761Z,54.30
2018-02-25T11:19:54.160Z,54.30
2018-02-25T11:22:21.775Z,53.10
2018-02-25T11:24:50.978Z,54.10
2018-02-25T11:27:18.682Z,54.10
2018-02-25T11:29:46.294Z,53.10
2018-02-25T11:32:13.903Z,54.30
2018-02-25T11:34:41.808Z,53.20
2018-02-25T11:37:10.203Z,54.90
2018-02-25T11:39:38.626Z,54.50
2018-02-25T11:42:06.285Z,54.50
2018-02-25T11:44:33.878Z,54.50
2018-02-25T11:47:01.451Z,53.80
2018-02-25T11:49:29.363Z,54.30
2018-02-25T11:51:56.922Z,54.60
2018-02-25T11:54:24.515Z,53.70
2018-02-25T11:56:52.110Z,52.50
2018-02-25T11:59:19.692Z,52.60
2018-02-25T12:01:47.326Z,53.30
2018-02-25T12:04:14.926Z,53.60
2018-02-25T12:06:42.500Z,53.20
2018-02-25T12:09:10.244Z,54.20
2018-02-25T12:11:37.806Z,53.90
2018-02-25T12:14:05.405Z,53.00
2018-02-25T12:16:32.988Z,52.00
2018-02-25T12:19:00.606Z,52.80
2018-02-25T12:21:28.179Z,52.90
2018-02-25T12:23:55.782Z,52.00
2018-02-25T12:26:23.380Z,51.90
2018-02-25T12:28:50.982Z,52.80
2018-02-25T12:31:18.590Z,51.30
2018-02-25T12:33:46.337Z,52.20
2018-02-25T12:36:15.019Z,53.20
2018-02-25T12:38:43.398Z,53.20
2018-02-25T12:41:11.162Z,52.90
2018-02-25T12:43:38.991Z,53.00
2018-02-25T12:46:07.798Z,53.40
2018-02-25T12:48:35.386Z,52.10
2018-02-25T12:51:03.506Z,52.40
2018-02-25T12:53:31.214Z,52.60
2018-02-25T12:55:58.903Z,52.70
2018-02-25T12:58:26.467Z,53.00
2018-02-25T13:00:54.800Z,52.80
2018-02-25T13:03:23.388Z,52.70
2018-02-25T13:05:50.969Z,50.90
2018-02-25T13:08:18.539Z,52.70
2018-02-25T13:10:46.143Z,51.60
2018-02-25T13:13:14.079Z,50.90
2018-02-25T13:15:41.901Z,51.50
2018-02-25T13:18:09.466Z,51.50
2018-02-25T13:20:37.091Z,51.00
2018-02-25T13:23:04.662Z,51.20
2018-02-25T13:25:32.255Z,50.90
2018-02-25T13:27:59.864Z,50.70
2018-02-25T13:30:27.500Z,50.00
2018-02-25T13:32:55.134Z,50.30
2018-02-25T13:35:26.478Z,50.70
2018-02-25T13:37:54.074Z,50.10
2018-02-25T13:40:21.771Z,51.00
2018-02-25T13:42:49.511Z,49.80
2018-02-25T13:45:17.123Z,50.00
2018-02-25T13:47:45.590Z,49.50
2018-02-25T13:50:13.870Z,49.70
2018-02-25T13:52:41.725Z,49.00
2018-02-25T13:55:11.515Z,49.00
2018-02-25T13:57:39.166Z,49.60
2018-02-25T14:00:06.718Z,49.80
2018-02-25T14:02:34.322Z,49.00
2018-02-25T14:05:02.175Z,48.30
2018-02-25T14:07:29.817Z,48.40
2018-02-25T14:09:57.411Z,47.60
2018-02-25T14:12:25.458Z,48.00
2018-02-25T14:14:53.077Z,48.00
2018-02-25T14:17:20.776Z,47.40
2018-02-25T14:19:48.428Z,46.80
2018-02-25T14:22:16.028Z,46.60
2018-02-25T14:24:43.578Z,45.60
2018-02-25T14:27:11.205Z,46.40
2018-02-25T14:29:38.850Z,46.50
2018-02-25T14:32:06.811Z,46.90
2018-02-25T14:34:34.465Z,46.80
2018-02-25T14:37:02.055Z,46.00
2018-02-25T14:39:29.631Z,45.40
2018-02-25T14:41:57.228Z,45.00
2018-02-25T14:44:24.812Z,45.30
2018-02-25T14:46:52.433Z,45.00
2018-02-25T14:49:19.985Z,45.40
2018-02-25T14:51:47.583Z,44.90
2018-02-25T14:54:15.138Z,44.40
2018-02-25T14:56:42.827Z,44.20
2018-02-25T14:59:10.424Z,42.60
2018-02-25T15:01:38.056Z,43.50
2018-02-25T15:04:05.639Z,43.60
2018-02-25T15:06:33.280Z,43.30
2018-02-25T15:09:00.866Z,42.60
2018-02-25T15:11:28.693Z,42.10
2018-02-25T15:13:56.258Z,42.40
2018-02-25T15:16:24.008Z,42.20
2018-02-25T15:18:51.606Z,41.20
2018-02-25T15:21:19.331Z,41.90
2018-02-25T15:23:46.942Z,41.10
2018-02-25T15:26:14.956Z,41.30
2018-02-25T15:28:43.231Z,41.30
2018-02-25T15:31:11.729Z,41.10
2018-02-25T15:33:39.787Z,40.10
2018-02-25T15:36:07.382Z,41.30
2018-02-25T15:38:34.963Z,40.20
2018-02-25T15:41:02.608Z,39.40
2018-02-25T15:43:30.622Z,41.20
2018-02-25T15:45:58.311Z,41.20
2018-02-25T15:48:25.969Z,41.70
2018-02-25T15:50:53.865Z,41.60
2018-02-25T15:53:21.685Z,41.30
2018-02-25T15:55:50.095Z,41.30
2018-02-25T15:58:17.678Z,41.70
2018-02-25T16:00:45.293Z,41.90
2018-02-25T16:03:12.890Z,42.00
2018-02-25T16:05:40.596Z,42.50
2018-02-25T16:08:08.182Z,42.90
2018-02-25T16:10:36.033Z,42.40
2018-02-25T16:13:04.283Z,42.30
2018-02-25T16:15:32.084Z,42.30
2018-02-25T16:18:00.025Z,42.50
2018-02-25T16:20:27.611Z,43.40
2018-02-25T16:22:55.193Z,44.40
2018-02-25T16:25:22.823Z,45.90
2018-02-25T16:27:50.426Z,47.30
2018-02-25T16:30:17.984Z,48.50
2018-02-25T16:32:45.763Z,49.50
2018-02-25T16:35:13.346Z,49.80
2018-02-25T16:37:41.010Z,50.50
2018-02-25T16:40:08.819Z,50.90
2018-02-25T16:42:36.742Z,51.50
2018-02-25T16:45:04.827Z,51.90
2018-02-25T16:47:32.414Z,52.20
2018-02-25T16:50:03.436Z,52.10
2018-02-25T16:52:31.061Z,52.60
2018-02-25T16:54:58.634Z,52.80
2018-02-25T16:57:26.968Z,53.30
2018-02-25T16:59:54.959Z,54.10
2018-02-25T17:02:22.561Z,54.10
2018-02-25T17:04:50.134Z,54.40
2018-02-25T17:07:17.726Z,54.20
2018-02-25T17:09:45.336Z,54.90
2018-02-25T17:12:13.383Z,54.90
2018-02-25T17:14:41.008Z,55.00
2018-02-25T17:17:08.601Z,55.30
2018-02-25T17:19:36.205Z,55.50
2018-02-25T17:22:03.805Z,55.60
2018-02-25T17:24:31.406Z,55.60
2018-02-25T17:26:58.999Z,56.10
2018-02-25T17:29:26.684Z,56.30
2018-02-25T17:31:54.246Z,56.00
2018-02-25T17:34:21.905Z,56.30
2018-02-25T17:36:49.492Z,56.50
2018-02-25T17:39:17.151Z,57.00
2018-02-25T17:41:44.750Z,57.30
2018-02-25T17:44:12.351Z,57.60
2018-02-25T17:46:40.000Z,57.80
2018-02-25T17:49:07.646Z,58.20
2018-02-25T17:51:35.289Z,58.20
2018-02-25T17:54:02.907Z,58.40
2018-02-25T17:56:30.629Z,58.50
2018-02-25T17:58:58.227Z,58.90
2018-02-25T18:01:25.882Z,59.00
2018-02-25T18:03:53.459Z,59.10
2018-02-25T18:06:21.107Z,59.20
2018-02-25T18:08:48.756Z,59.60
2018-02-25T18:11:16.317Z,59.30
2018-02-25T18:13:43.993Z,59.70
2018-02-25T18:16:11.550Z,59.90
2018-02-25T18:18:39.171Z,59.60
2018-02-25T18:21:06.833Z,59.80
2018-02-25T18:23:34.457Z,59.70
2018-02-25T18:26:02.067Z,59.90
2018-02-25T18:28:29.652Z,60.00
2018-02-25T18:30:57.292Z,60.10
2018-02-25T18:33:24.915Z,60.20
2018-02-25T18:35:52.517Z,60.20
2018-02-25T18:38:20.177Z,60.70
2018-02-25T18:40:47.739Z,60.60
2018-02-25T18:43:15.378Z,60.80
2018-02-25T18:45:42.961Z,61.00
2018-02-25T18:48:10.896Z,61.00
2018-02-25T18:50:38.496Z,61.10
2018-02-25T18:53:06.145Z,61.30
2018-02-25T18:55:33.765Z,61.10
2018-02-25T18:58:01.350Z,61.40
2018-02-25T19:00:28.996Z,61.20
2018-02-25T19:02:56.637Z,61.20
2018-02-25T19:05:24.315Z,61.30
2018-02-25T19:07:51.930Z,61.30
2018-02-25T19:10:19.514Z,61.10
2018-02-25T19:12:47.085Z,61.10
2018-02-25T19:15:14.675Z,61.30
2018-02-25T19:17:42.233Z,61.20
2018-02-25T19:20:09.867Z,61.30
2018-02-25T19:22:37.515Z,61.30
2018-02-25T19:25:05.112Z,61.20
2018-02-25T19:27:32.973Z,61.20
2018-02-25T19:30:00.601Z,61.30
2018-02-25T19:32:28.201Z,61.50
2018-02-25T19:34:55.836Z,61.60
2018-02-25T19:37:29.122Z,61.60
2018-02-25T19:40:01.575Z,61.70
2018-02-25T19:42:29.211Z,61.40
2018-02-25T19:44:56.763Z,61.30
2018-02-25T19:47:24.731Z,61.40
2018-02-25T19:49:52.313Z,61.40
2018-02-25T19:52:19.906Z,61.40
2018-02-25T19:54:47.519Z,61.40
2018-02-25T19:57:15.112Z,61.30
2018-02-25T19:59:42.719Z,61.40
2018-02-25T20:02:10.322Z,61.40
2018-02-25T20:04:37.919Z,61.30
2018-02-25T20:07:05.478Z,61.40
2018-02-25T20:09:33.074Z,61.40
2018-02-25T20:12:00.681Z,61.50
2018-02-25T20:14:28.281Z,61.40
2018-02-25T20:16:55.851Z,61.50
2018-02-25T20:19:23.449Z,61.60
2018-02-25T20:21:51.042Z,61.70
2018-02-25T20:24:18.847Z,61.60
2018-02-25T20:26:46.426Z,61.90
2018-02-25T20:29:14.040Z,61.90
2018-02-25T20:31:42.076Z,61.90
2018-02-25T20:34:09.722Z,61.90
2018-02-25T20:36:37.297Z,62.10
2018-02-25T20:39:04.916Z,62.00
2018-02-25T20:41:32.595Z,62.20
2018-02-25T20:44:00.175Z,62.30
2018-02-25T20:46:27.949Z,62.30
2018-02-25T20:48:55.522Z,62.30
2018-02-25T20:51:23.390Z,62.30
2018-02-25T20:53:50.991Z,62.40
2018-02-25T20:56:18.577Z,62.60
2018-02-25T20:58:46.181Z,62.60
2018-02-25T21:01:13.830Z,62.60
2018-02-25T21:03:41.406Z,63.70
2018-02-25T21:06:09.226Z,63.50
2018-02-25T21:08:36.867Z,62.80
2018-02-25T21:11:04.479Z,62.70
2018-02-25T21:13:32.078Z,62.60
2018-02-25T21:15:59.711Z,62.70
2018-02-25T21:18:27.303Z,62.80
2018-02-25T21:20:54.940Z,62.80
2018-02-25T21:23:22.514Z,62.70
2018-02-25T21:25:50.106Z,62.70
2018-02-25T21:28:17.690Z,62.70
2018-02-25T21:30:45.307Z,62.80
2018-02-25T21:33:13.158Z,62.90
2018-02-25T21:35:40.792Z,62.90
2018-02-25T21:38:08.369Z,62.90
2018-02-25T21:40:36.212Z,63.00
2018-02-25T21:43:03.800Z,63.10
2018-02-25T21:45:31.422Z,63.10
2018-02-25T21:47:59.075Z,63.40
2018-02-25T21:50:26.697Z,63.20
2018-02-25T21:52:54.262Z,63.10
2018-02-25T21:55:22.101Z,63.20
2018-02-25T21:57:56.047Z,63.80
2018-02-25T22:00:29.212Z,63.60
2018-02-25T22:03:02.386Z,63.50
2018-02-25T22:05:29.982Z,63.60
2018-02-25T22:07:57.561Z,63.80
2018-02-25T22:10:25.552Z,64.20
2018-02-25T22:12:53.097Z,64.20
2018-02-25T22:15:20.794Z,64.30
2018-02-25T22:17:48.438Z,64.40
2018-02-25T22:20:16.088Z,64.20
2018-02-25T22:22:43.691Z,64.40
2018-02-25T22:25:11.331Z,64.30
2018-02-25T22:27:39.009Z,64.10
2018-02-25T22:30:06.567Z,64.30
2018-02-25T22:32:34.197Z,64.40
2018-02-25T22:35:01.797Z,64.30
2018-02-25T22:37:29.395Z,64.30
2018-02-25T22:39:56.962Z,64.30
2018-02-25T22:42:24.565Z,64.50
2018-02-25T22:44:52.213Z,64.50
2018-02-25T22:47:19.800Z,64.60
2018-02-25T22:49:47.395Z,64.40
2018-02-25T22:52:15.004Z,64.60
2018-02-25T22:54:42.642Z,64.60
2018-02-25T22:57:10.245Z,64.60
2018-02-25T22:59:38.217Z,65.00
2018-02-25T23:02:05.782Z,65.00
2018-02-25T23:04:33.819Z,65.00
2018-02-25T23:07:01.453Z,65.00
2018-02-25T23:09:29.009Z,65.00
2018-02-25T23:11:56.659Z,64.90
2018-02-25T23:14:24.205Z,64.80
2018-02-25T23:16:51.822Z,64.90
2018-02-25T23:19:19.422Z,64.90
2018-02-25T23:21:47.014Z,65.10
2018-02-25T23:24:14.593Z,65.20
2018-02-25T23:26:42.172Z,65.20
2018-02-25T23:29:09.750Z,65.20
2018-02-25T23:31:37.360Z,65.30
2018-02-25T23:34:04.962Z,65.40
2018-02-25T23:36:32.547Z,65.40
2018-02-25T23:39:00.160Z,65.40
2018-02-25T23:41:27.790Z,65.70
2018-02-25T23:43:55.363Z,65.70
2018-02-25T23:46:22.951Z,65.70
2018-02-25T23:48:50.520Z,65.80
2018-02-25T23:51:18.308Z,65.90
2018-02-25T23:53:45.902Z,66.00
2018-02-25T23:56:13.506Z,66.00
2018-02-25T23:58:41.070Z,66.00
